Talleys Crossing, North Carolina
Current Conditions -  °F | °C
As of 3:54 PM on Tuesday 21 Oct 2014 (Local Time) from KGSO Reporting Station
Broken Clouds Broken Clouds  
Wind Chill: 70°   Ceiling: 6500
Heat Index: 70°   Visibility: 10mi
Dew Point: 43°   Wind: 15mph
Humidity: 38%   Direction: 310°NW
Pressure: 29.85"   Gusts: NA
Location:  36.1188°N, 80.075°W
Report Text: KGSO 211954Z 31013KT 10SM BKN065 21/06 A2985 RMK AO2 WSHFT 1928 SLP101 T02110061
Loading
Personal Weather Stations






























Interactive Weather Map
Tropical Storm Tracking
New forecast layout! Learn more

10-Day Weather Forecast

Advertisements
Track Severe Weather on mobile